This is the latest recevied weather packets stored in our database for station/object KG5EO. If no packets are shown the sender has not sent any weather packets the latest 10 day(s).
| Time | Temp. | Humidity | Pressure | Rain* | Wind** | Luminosity | Snow |
|---|---|---|---|---|---|---|---|
| 1788149146 | 83° F | 58% | 30.8 mmHg | 0 in | - | - | - |
| 1788148845 | 84° F | 59% | 30.8 mmHg | 0 in | - | - | - |
| 1788148545 | 83° F | 58% | 30.8 mmHg | 0 in | - | - | - |
| 1788148245 | 81° F | 62% | 30.8 mmHg | 0 in | - | - | - |
| 1788147945 | 81° F | 66% | 30.8 mmHg | 0 in | - | - | - |
| 1788147644 | 82° F | 65% | 30.8 mmHg | 0 in | - | - | - |
| 1788147344 | 84° F | 60% | 30.8 mmHg | 0 in | - | - | - |
| 1788147045 | 86° F | 59% | 30.8 mmHg | 0 in | - | - | - |
| 1788146744 | 87° F | 55% | 30.8 mmHg | 0 in | - | - | - |
| 1788146444 | 89° F | 52% | 30.7 mmHg | 0 in | - | - | - |
| 1788146145 | 89° F | 52% | 30.7 mmHg | 0 in | - | - | - |
| 1788145843 | 89° F | 50% | 30.7 mmHg | 0 in | - | - | - |
| 1788145544 | 90° F | 48% | 30.7 mmHg | 0 in | - | - | - |
| 1788145243 | 90° F | 45% | 30.7 mmHg | 0 in | - | - | - |
| 1788144943 | 91° F | 44% | 30.7 mmHg | 0 in | - | - | - |
| 1788144644 | 93° F | 42% | 30.7 mmHg | 0 in | - | - | - |
| 1788144343 | 96° F | 37% | 30.7 mmHg | 0 in | - | - | - |
| 1788144043 | 100° F | 32% | 30.7 mmHg | 0 in | - | - | - |
| 1788143743 | 100° F | 32% | 30.7 mmHg | 0 in | - | - | - |
| 1788143443 | 100° F | 33% | 30.7 mmHg | 0 in | - | - | - |
| 1788143142 | 100° F | 32% | 30.7 mmHg | 0 in | - | - | - |
| 1788142842 | 101° F | 32% | 30.7 mmHg | 0 in | - | - | - |
| 1788142542 | 101° F | 31% | 30.7 mmHg | 0 in | - | - | - |
| 1788142242 | 101° F | 30% | 30.7 mmHg | 0 in | - | - | - |
| 1788141942 | 101° F | 30% | 30.7 mmHg | 0 in | - | - | - |
* Rain latest hour (hover to see other rain measurements)
** Current wind speed in m/s (hover to see current wind gust speed)